EDT,Max TemperatureF,Mean TemperatureF,Min TemperatureF,Max Dew PointF,MeanDew PointF,Min DewpointF,Max Humidity, Mean Humidity, Min Humidity, Max Sea Level PressureIn, Mean Sea Level PressureIn, Min Sea Level PressureIn, Max VisibilityMiles, Mean VisibilityMiles, Min VisibilityMiles, Max Wind SpeedMPH, Mean Wind SpeedMPH, Max Gust SpeedMPH,PrecipitationIn, CloudCover, Events, WindDirDegrees
2013-6-1,86,83,79,77,75,73,85,75,65,30.03,29.99,29.95,10,10,4,23,8,30,0.03,3,Rain,137
2013-6-2,84,80,75,75,73,71,88,79,69,30.02,29.98,29.94,10,8,1,23,7,36,0.62,5,Rain,148
2013-6-3,82,78,73,77,74,70,93,86,79,30.03,29.97,29.92,10,8,2,26,7,32,0.50,6,Rain,116
2013-6-4,83,79,74,78,75,71,94,87,79,30.01,29.98,29.95,10,10,7,18,11,26,0.08,4,Rain,89
2013-6-5,83,80,76,79,76,72,91,88,85,29.99,29.91,29.85,10,8,2,26,15,33,0.84,5,Rain-Thunderstorm,115
2013-6-6,85,80,74,79,75,72,91,85,79,29.90,29.86,29.79,10,7,0,24,14,35,1.18,5,Fog-Rain-Thunderstorm,215
2013-6-7,85,80,74,80,75,70,94,84,74,30.01,29.95,29.87,10,8,1,21,9,28,0.54,2,Rain,211
2013-6-8,87,84,80,80,78,75,94,86,77,30.09,30.03,29.99,10,9,7,16,10,22,0.00,0,,123
2013-6-9,87,84,81,77,75,74,85,77,68,30.08,30.04,30.00,10,10,10,20,14,24,0.00,0,,103
2013-6-10,88,85,82,77,76,75,79,75,70,30.06,30.04,30.00,10,10,10,18,12,23,0.00,0,,106
2013-6-11,87,82,77,79,76,72,88,79,70,30.08,30.04,30.01,10,10,3,16,5,21,0.18,3,Rain-Thunderstorm,130
2013-6-12,86,81,75,79,75,70,94,84,74,30.08,30.06,30.02,10,7,0,25,5,32,3.03,5,Fog-Rain-Thunderstorm,170
2013-6-13,86,82,77,76,74,72,88,79,69,30.06,30.01,29.97,10,10,9,18,6,22,0.00,0,Thunderstorm,156
2013-6-14,88,85,81,75,74,72,85,77,68,30.00,29.96,29.93,10,10,10,10,6,15,T,3,Rain,231
2013-6-15,89,84,79,75,74,73,85,72,59,30.06,30.02,29.96,10,10,10,9,5,13,0.00,3,,348
2013-6-16,89,85,81,77,75,73,79,72,65,30.08,30.05,30.02,10,10,10,20,10,32,0.00,1,,100
2013-6-17,89,86,83,77,76,74,80,74,68,30.06,30.04,30.00,10,10,10,17,12,22,0.00,2,,110
2013-6-18,89,86,82,79,77,75,85,77,68,30.06,30.03,29.99,10,10,9,15,10,21,0.00,2,,126
2013-6-19,89,86,83,77,76,75,80,74,68,30.05,30.02,29.99,10,10,9,15,9,18,0.00,2,,125
2013-6-20,91,87,82,76,75,73,74,69,64,30.09,30.05,30.01,10,10,10,20,11,23,0.00,2,,117
2013-6-21,90,87,83,74,73,72,74,67,59,30.11,30.07,30.03,10,10,10,18,12,22,0.00,0,,109
2013-6-22,90,86,82,75,73,71,74,67,59,30.09,30.06,30.03,10,10,10,15,9,18,0.06,2,,99
2013-6-23,89,85,80,76,74,73,79,69,59,30.10,30.07,30.03,10,10,4,18,12,23,0.10,2,Rain,109
2013-6-24,89,84,78,76,73,71,79,69,59,30.15,30.09,30.06,10,10,10,20,12,26,0.07,1,Rain,107
2013-6-25,90,86,82,77,75,70,80,72,64,30.10,30.06,30.02,10,10,10,16,9,21,T,2,,99
2013-6-26,86,83,80,77,75,73,80,75,70,30.08,30.03,30.00,10,9,2,24,10,29,0.76,4,Rain-Thunderstorm,120
2013-6-27,89,85,80,76,75,73,79,69,59,30.04,30.01,29.98,10,9,1,17,7,22,0.55,3,Rain,129
2013-6-28,88,85,82,76,75,71,79,72,65,30.00,29.95,29.90,10,10,10,15,6,18,T,2,Rain,133
2013-6-29,87,85,83,76,75,73,79,72,65,29.93,29.90,29.88,10,10,5,16,8,20,0.00,1,,181
2013-6-30,87,85,82,76,74,73,79,71,63,29.96,29.91,29.87,10,10,10,23,15,29,0.00,2,,181